Chengwatana, Minnesota
Current Conditions -  °F | °C
As of 1:35 AM on Thursday 23 Oct 2014 (Local Time) from KROS Reporting Station
Overcast Overcast  
Wind Chill: 53°   Ceiling: 5500
Heat Index: 53°   Visibility: 10mi
Dew Point: 40°   Wind: 7mph
Humidity: 62%   Direction: 160°SSE
Pressure: 30"   Gusts: NA
Location:  45.8356°N, 92.9649°W
Report Text: KROS 230635Z AUTO 16006KT 10SM OVC055 12/05 A3000 RMK AO2 T01150045
Loading
Personal Weather Stations






























Interactive Weather Map
Tropical Storm Tracking
New forecast layout! Learn more

10-Day Weather Forecast

Advertisements
Track Severe Weather on mobile